Time;durP1;ratioP1;P1;durP2;ratioP2;P2;SDS_P1;SDS_P2;PMS_P1;PMS_P2;Temp;Humidity;BMP_temperature;BMP_pressure;BME280_temperature;BME280_humidity;BME280_pressure;Samples;Min_cycle;Max_cycle;Signal;HPM_P1;HPM_P2
2023/10/30 00:01:53;;;;;;;16.55;14.73;;;;;;;;;;5069355;28;20025;-53
2023/10/30 00:04:19;;;;;;;16.83;14.13;;;;;;;;;;5071010;28;20048;-52
2023/10/30 00:06:45;;;;;;;17.27;14.65;;;;;;;;;;5071963;28;20024;-51
2023/10/30 00:09:11;;;;;;;18.02;15.10;;;;;;;;;;5053994;28;20036;-52
2023/10/30 00:11:37;;;;;;;18.63;15.10;;;;;;;;;;5074843;28;20052;-51
2023/10/30 00:14:04;;;;;;;16.80;15.05;;;;;;;;;;5075005;28;20059;-50
2023/10/30 00:16:30;;;;;;;16.73;14.75;;;;;;;;;;5074541;28;20048;-52
2023/10/30 00:18:58;;;;;;;17.77;15.05;;;;;;;;;;5077933;28;20051;-53
2023/10/30 00:21:24;;;;;;;21.23;16.35;;;;;;;;;;5073293;28;20414;-52
2023/10/30 00:23:50;;;;;;;16.90;15.20;;;;;;;;;;5074430;28;20032;-50
2023/10/30 00:26:16;;;;;;;19.00;15.40;;;;;;;;;;5058820;28;20038;-50
2023/10/30 00:28:42;;;;;;;19.60;15.93;;;;;;;;;;5074572;28;20743;-51
2023/10/30 00:31:08;;;;;;;19.02;17.02;;;;;;;;;;5067997;28;20017;-50
2023/10/30 00:33:34;;;;;;;18.92;17.02;;;;;;;;;;5062345;28;20040;-50
2023/10/30 00:36:00;;;;;;;19.05;17.05;;;;;;;;;;5072036;28;20025;-54
2023/10/30 00:38:26;;;;;;;18.77;16.38;;;;;;;;;;5073150;28;20108;-51
2023/10/30 00:40:53;;;;;;;20.85;17.50;;;;;;;;;;5073140;28;20111;-53
2023/10/30 00:43:19;;;;;;;18.77;16.77;;;;;;;;;;5074086;28;20032;-49
2023/10/30 00:45:45;;;;;;;20.77;16.48;;;;;;;;;;5062432;28;20041;-49
2023/10/30 00:48:11;;;;;;;19.10;17.02;;;;;;;;;;5069969;28;20031;-49
2023/10/30 00:50:37;;;;;;;17.35;15.50;;;;;;;;;;5074370;28;20020;-49
2023/10/30 00:53:03;;;;;;;18.27;15.85;;;;;;;;;;5073992;28;20055;-49
2023/10/30 00:55:29;;;;;;;17.77;15.93;;;;;;;;;;5073266;28;20056;-49
2023/10/30 00:57:55;;;;;;;18.40;16.20;;;;;;;;;;5073978;28;20052;-50
2023/10/30 01:00:21;;;;;;;19.13;17.13;;;;;;;;;;5073617;28;20580;-52
2023/10/30 01:02:47;;;;;;;20.63;18.48;;;;;;;;;;5068396;28;20028;-50
2023/10/30 01:05:13;;;;;;;20.55;18.40;;;;;;;;;;5059409;28;20029;-50
2023/10/30 01:07:39;;;;;;;20.50;17.80;;;;;;;;;;5069918;28;20107;-50
2023/10/30 01:10:06;;;;;;;21.63;17.33;;;;;;;;;;5068465;28;20122;-49
2023/10/30 01:12:32;;;;;;;20.50;17.85;;;;;;;;;;5073466;28;20028;-52
2023/10/30 01:14:58;;;;;;;20.88;18.67;;;;;;;;;;5073596;28;20382;-51
2023/10/30 01:17:24;;;;;;;21.10;18.05;;;;;;;;;;5055663;28;20024;-50
2023/10/30 01:19:50;;;;;;;23.15;18.20;;;;;;;;;;5072419;28;20017;-51
2023/10/30 01:22:16;;;;;;;21.85;18.70;;;;;;;;;;5070084;28;20470;-49
2023/10/30 01:24:42;;;;;;;19.00;17.05;;;;;;;;;;5071428;28;20098;-51
2023/10/30 01:27:08;;;;;;;20.77;18.30;;;;;;;;;;5073224;28;20035;-52
2023/10/30 01:29:34;;;;;;;20.65;17.55;;;;;;;;;;5073290;28;20024;-50
2023/10/30 01:32:00;;;;;;;20.65;16.35;;;;;;;;;;5067008;28;20409;-52
2023/10/30 01:34:26;;;;;;;22.95;18.50;;;;;;;;;;5065618;28;20020;-50
2023/10/30 01:36:52;;;;;;;21.70;18.02;;;;;;;;;;5073172;28;20118;-52
2023/10/30 01:39:18;;;;;;;22.08;18.92;;;;;;;;;;5071986;28;20040;-51
2023/10/30 01:41:44;;;;;;;20.88;17.17;;;;;;;;;;5069983;28;20032;-50
2023/10/30 01:44:10;;;;;;;20.70;16.25;;;;;;;;;;5072863;28;20040;-52
2023/10/30 01:46:36;;;;;;;18.63;15.73;;;;;;;;;;5073245;28;20108;-51
2023/10/30 01:49:02;;;;;;;17.77;15.35;;;;;;;;;;5072876;28;20445;-50
2023/10/30 01:51:28;;;;;;;18.00;15.77;;;;;;;;;;5071630;28;20111;-52
2023/10/30 01:53:54;;;;;;;18.42;15.50;;;;;;;;;;5072822;28;20082;-50
2023/10/30 01:56:21;;;;;;;16.00;14.30;;;;;;;;;;5071963;28;20498;-52
2023/10/30 01:58:47;;;;;;;17.90;15.25;;;;;;;;;;5059664;28;20033;-51
2023/10/30 02:01:13;;;;;;;19.85;15.57;;;;;;;;;;5072688;28;20046;-52
2023/10/30 02:03:39;;;;;;;18.08;16.17;;;;;;;;;;5068725;28;20036;-49
2023/10/30 02:06:05;;;;;;;17.45;15.60;;;;;;;;;;5045383;28;20025;-51
2023/10/30 02:08:31;;;;;;;20.23;16.20;;;;;;;;;;5061708;28;20024;-52
2023/10/30 02:10:57;;;;;;;19.88;16.00;;;;;;;;;;5058484;28;20423;-54
2023/10/30 02:13:23;;;;;;;19.75;16.67;;;;;;;;;;5067119;28;20020;-53
2023/10/30 02:15:49;;;;;;;17.83;15.93;;;;;;;;;;5066668;28;20039;-53
2023/10/30 02:18:15;;;;;;;18.88;16.88;;;;;;;;;;5064246;28;20275;-51
2023/10/30 02:20:41;;;;;;;24.73;17.23;;;;;;;;;;5070896;28;20024;-53
2023/10/30 02:23:08;;;;;;;18.88;16.65;;;;;;;;;;5071458;28;20153;-54
2023/10/30 02:25:34;;;;;;;21.80;17.60;;;;;;;;;;5053580;28;20033;-54
2023/10/30 02:28:00;;;;;;;19.65;17.55;;;;;;;;;;5064175;28;20016;-52
2023/10/30 02:30:26;;;;;;;20.13;17.17;;;;;;;;;;5069245;28;20032;-54
2023/10/30 02:32:53;;;;;;;21.25;18.08;;;;;;;;;;5063522;28;20727;-51
2023/10/30 02:35:19;;;;;;;23.52;18.63;;;;;;;;;;5051769;28;20041;-49
2023/10/30 02:37:45;;;;;;;23.92;19.67;;;;;;;;;;5064069;28;20586;-53
2023/10/30 02:40:11;;;;;;;22.65;20.00;;;;;;;;;;5067256;28;20021;-53
2023/10/30 02:42:38;;;;;;;22.92;20.58;;;;;;;;;;5068905;28;20039;-54
2023/10/30 02:45:04;;;;;;;28.90;21.27;;;;;;;;;;5068765;28;20040;-50
2023/10/30 02:47:30;;;;;;;27.70;20.95;;;;;;;;;;5067845;28;20017;-53
2023/10/30 02:49:56;;;;;;;28.88;21.58;;;;;;;;;;5050528;28;20024;-53
2023/10/30 02:52:22;;;;;;;27.77;21.00;;;;;;;;;;5068595;28;20415;-53
2023/10/30 02:54:48;;;;;;;35.38;26.15;;;;;;;;;;5065024;28;20031;-50
2023/10/30 02:57:14;;;;;;;35.88;27.48;;;;;;;;;;5049851;28;20032;-52
2023/10/30 02:59:41;;;;;;;44.40;28.92;;;;;;;;;;5068712;28;20021;-50
2023/10/30 03:02:07;;;;;;;36.85;26.83;;;;;;;;;;5055364;28;20033;-52
2023/10/30 03:04:33;;;;;;;34.47;26.95;;;;;;;;;;5052347;28;20053;-50
2023/10/30 03:06:59;;;;;;;34.95;26.58;;;;;;;;;;5059360;28;20060;-50
2023/10/30 03:09:30;;;;;;;35.78;27.42;;;;;;;;;;5068107;28;20453;-53
2023/10/30 03:11:56;;;;;;;38.60;27.73;;;;;;;;;;5068213;28;20189;-52
2023/10/30 03:14:22;;;;;;;40.85;28.42;;;;;;;;;;5063531;28;20123;-50
2023/10/30 03:16:50;;;;;;;36.67;27.30;;;;;;;;;;5054158;28;20045;-53
2023/10/30 03:19:17;;;;;;;37.40;26.45;;;;;;;;;;5066910;28;20032;-52
2023/10/30 03:21:43;;;;;;;39.15;26.98;;;;;;;;;;5068387;28;20060;-53
2023/10/30 03:24:09;;;;;;;36.92;26.27;;;;;;;;;;5071302;28;20044;-53
2023/10/30 03:26:35;;;;;;;38.28;27.60;;;;;;;;;;5071526;28;20028;-49
2023/10/30 03:29:01;;;;;;;36.03;26.63;;;;;;;;;;5071397;28;20052;-50
2023/10/30 03:31:28;;;;;;;41.38;27.95;;;;;;;;;;5071154;28;20024;-49
2023/10/30 03:33:54;;;;;;;38.05;25.77;;;;;;;;;;5071471;28;20086;-49
2023/10/30 03:36:24;;;;;;;38.13;25.17;;;;;;;;;;5068957;28;20021;-52
2023/10/30 03:38:51;;;;;;;41.35;26.63;;;;;;;;;;5069311;28;20032;-52
2023/10/30 03:41:17;;;;;;;40.17;27.35;;;;;;;;;;5070079;28;20016;-52
2023/10/30 03:43:43;;;;;;;38.72;26.13;;;;;;;;;;5071342;28;20500;-50
2023/10/30 03:46:09;;;;;;;42.92;27.00;;;;;;;;;;5062032;28;20049;-52
2023/10/30 03:48:35;;;;;;;40.50;27.40;;;;;;;;;;5050773;28;20025;-53
2023/10/30 03:51:02;;;;;;;39.45;26.50;;;;;;;;;;5067736;28;20037;-50
2023/10/30 03:53:29;;;;;;;38.15;26.38;;;;;;;;;;5047825;28;20433;-51
2023/10/30 03:55:55;;;;;;;40.92;26.77;;;;;;;;;;5058256;28;20582;-52
2023/10/30 03:58:21;;;;;;;44.63;27.70;;;;;;;;;;5056246;28;20017;-49
2023/10/30 04:00:47;;;;;;;41.38;26.75;;;;;;;;;;5070551;28;20032;-51
2023/10/30 04:03:13;;;;;;;40.65;25.58;;;;;;;;;;5071082;28;20036;-49
2023/10/30 04:05:39;;;;;;;42.60;27.30;;;;;;;;;;5071201;28;20036;-51
2023/10/30 04:08:05;;;;;;;39.13;26.67;;;;;;;;;;5053146;28;20028;-50
2023/10/30 04:10:31;;;;;;;41.08;27.02;;;;;;;;;;5071128;28;20074;-50
2023/10/30 04:12:58;;;;;;;38.40;25.63;;;;;;;;;;5069752;28;20017;-53
2023/10/30 04:15:24;;;;;;;35.28;23.58;;;;;;;;;;5071059;28;20028;-52
2023/10/30 04:17:50;;;;;;;35.55;22.13;;;;;;;;;;5070928;28;20039;-50
2023/10/30 04:20:16;;;;;;;36.17;23.02;;;;;;;;;;5072837;28;20024;-50
2023/10/30 04:22:42;;;;;;;37.67;23.30;;;;;;;;;;5073695;28;20028;-51
2023/10/30 04:25:08;;;;;;;34.00;21.65;;;;;;;;;;5061509;28;20483;-51
2023/10/30 04:27:35;;;;;;;39.75;23.80;;;;;;;;;;5073352;28;20066;-51
2023/10/30 04:30:02;;;;;;;32.92;22.67;;;;;;;;;;5061406;28;20032;-50
2023/10/30 04:32:28;;;;;;;34.58;21.55;;;;;;;;;;5057007;28;20044;-50
2023/10/30 04:34:54;;;;;;;34.45;21.15;;;;;;;;;;5066324;28;20383;-53
2023/10/30 04:37:20;;;;;;;33.63;21.15;;;;;;;;;;5066615;28;20116;-52
2023/10/30 04:39:46;;;;;;;36.75;21.95;;;;;;;;;;5072487;28;20027;-50
2023/10/30 04:42:13;;;;;;;30.55;20.08;;;;;;;;;;5058435;28;20116;-53
2023/10/30 04:44:39;;;;;;;33.80;20.55;;;;;;;;;;5071576;28;20037;-54
2023/10/30 04:47:07;;;;;;;32.25;21.05;;;;;;;;;;5074392;28;20043;-50
2023/10/30 04:49:35;;;;;;;28.52;20.10;;;;;;;;;;5074298;28;20087;-50
2023/10/30 04:52:01;;;;;;;34.33;21.85;;;;;;;;;;5072902;28;20025;-53
2023/10/30 04:54:27;;;;;;;32.45;21.20;;;;;;;;;;5073894;28;20115;-50
2023/10/30 04:56:53;;;;;;;30.67;20.25;;;;;;;;;;5073834;28;20029;-51
2023/10/30 04:59:19;;;;;;;27.40;19.52;;;;;;;;;;5074140;28;20035;-49
2023/10/30 05:01:45;;;;;;;27.90;19.55;;;;;;;;;;5074111;28;20047;-51
2023/10/30 05:04:11;;;;;;;30.33;20.55;;;;;;;;;;5072299;28;20033;-50
2023/10/30 05:06:37;;;;;;;28.25;19.40;;;;;;;;;;5066460;28;20104;-54
2023/10/30 05:09:03;;;;;;;29.27;20.23;;;;;;;;;;5055664;28;20048;-53
2023/10/30 05:11:29;;;;;;;29.33;20.58;;;;;;;;;;5073872;28;20027;-54
2023/10/30 05:13:56;;;;;;;27.98;20.08;;;;;;;;;;5073340;28;20025;-52
2023/10/30 05:16:22;;;;;;;29.30;20.48;;;;;;;;;;5072286;28;20023;-53
2023/10/30 05:18:48;;;;;;;26.70;19.50;;;;;;;;;;5071616;28;20111;-52
2023/10/30 05:21:14;;;;;;;27.63;19.75;;;;;;;;;;5073730;28;20016;-53
2023/10/30 05:23:40;;;;;;;29.88;21.80;;;;;;;;;;5062677;28;20044;-53
2023/10/30 05:26:06;;;;;;;31.02;21.80;;;;;;;;;;5057967;28;20090;-52
2023/10/30 05:28:32;;;;;;;29.88;21.55;;;;;;;;;;5042054;28;20427;-53
2023/10/30 05:30:58;;;;;;;36.08;22.23;;;;;;;;;;5055476;28;20032;-52
2023/10/30 05:33:24;;;;;;;33.58;22.33;;;;;;;;;;5059073;28;20051;-52
2023/10/30 05:35:53;;;;;;;31.33;22.38;;;;;;;;;;5067120;28;20029;-50
2023/10/30 05:38:19;;;;;;;31.55;22.48;;;;;;;;;;5067034;28;20482;-54
2023/10/30 05:40:46;;;;;;;32.40;22.95;;;;;;;;;;5066473;28;20055;-51
2023/10/30 05:43:13;;;;;;;30.17;22.20;;;;;;;;;;5069200;28;20443;-53
2023/10/30 05:45:39;;;;;;;30.98;21.33;;;;;;;;;;5070354;28;20043;-50
2023/10/30 05:48:05;;;;;;;26.65;20.20;;;;;;;;;;5069495;28;20024;-51
2023/10/30 05:50:32;;;;;;;29.15;21.25;;;;;;;;;;5071652;28;20029;-51
2023/10/30 05:52:58;;;;;;;27.77;19.48;;;;;;;;;;5073008;28;20048;-50
2023/10/30 05:55:25;;;;;;;24.00;17.67;;;;;;;;;;5071785;28;20470;-52
2023/10/30 05:57:51;;;;;;;25.33;18.60;;;;;;;;;;5071524;28;20050;-54
2023/10/30 06:00:17;;;;;;;29.27;20.90;;;;;;;;;;5068895;28;20127;-53
2023/10/30 06:02:43;;;;;;;27.17;18.98;;;;;;;;;;5071289;28;20048;-55
2023/10/30 06:05:12;;;;;;;30.30;19.83;;;;;;;;;;5072082;28;20072;-50
2023/10/30 06:07:38;;;;;;;25.20;19.27;;;;;;;;;;5069704;28;20124;-50
2023/10/30 06:10:04;;;;;;;26.00;19.33;;;;;;;;;;5069494;28;20056;-51
2023/10/30 06:12:31;;;;;;;26.33;19.20;;;;;;;;;;5057835;28;20048;-53
2023/10/30 06:14:57;;;;;;;30.70;19.85;;;;;;;;;;5066653;28;20032;-51
2023/10/30 06:17:23;;;;;;;26.02;19.77;;;;;;;;;;5070064;28;20390;-53
2023/10/30 06:19:49;;;;;;;31.33;21.10;;;;;;;;;;5069816;28;20040;-50
2023/10/30 06:22:15;;;;;;;26.63;20.42;;;;;;;;;;5063276;28;20033;-52
2023/10/30 06:24:41;;;;;;;28.73;20.65;;;;;;;;;;5049826;28;20406;-53
2023/10/30 06:27:07;;;;;;;27.58;20.13;;;;;;;;;;5067534;28;20021;-54
2023/10/30 06:29:33;;;;;;;31.05;22.60;;;;;;;;;;5059748;28;20098;-53
2023/10/30 06:31:59;;;;;;;31.48;22.27;;;;;;;;;;5058307;28;20052;-52
2023/10/30 06:34:25;;;;;;;28.13;21.15;;;;;;;;;;5061020;28;20136;-50
2023/10/30 06:36:51;;;;;;;32.55;22.63;;;;;;;;;;5056405;28;20068;-53
2023/10/30 06:39:20;;;;;;;35.70;23.33;;;;;;;;;;5056727;28;20380;-54
2023/10/30 06:41:48;;;;;;;26.67;19.50;;;;;;;;;;5063629;28;20044;-55
2023/10/30 06:44:14;;;;;;;29.35;20.55;;;;;;;;;;5056806;28;20127;-54
2023/10/30 06:46:40;;;;;;;26.38;19.65;;;;;;;;;;5064584;28;20111;-54
2023/10/30 06:49:06;;;;;;;25.20;18.05;;;;;;;;;;5056530;28;20028;-50
2023/10/30 06:51:32;;;;;;;24.20;17.83;;;;;;;;;;5060251;28;20025;-52
2023/10/30 06:53:58;;;;;;;28.13;19.00;;;;;;;;;;5059268;28;20406;-52
2023/10/30 06:56:24;;;;;;;25.73;19.15;;;;;;;;;;5063410;28;20021;-52
2023/10/30 06:58:50;;;;;;;26.70;20.08;;;;;;;;;;5060188;28;20024;-51
2023/10/30 07:01:16;;;;;;;26.17;18.98;;;;;;;;;;5066098;28;20126;-50
2023/10/30 07:03:42;;;;;;;27.08;19.85;;;;;;;;;;5066486;28;20108;-50
2023/10/30 07:06:10;;;;;;;28.60;20.13;;;;;;;;;;5067202;28;20031;-51
2023/10/30 07:08:36;;;;;;;26.30;19.00;;;;;;;;;;5064857;28;20040;-54
2023/10/30 07:11:03;;;;;;;25.38;19.38;;;;;;;;;;5064993;28;20170;-52
2023/10/30 07:13:28;;;;;;;28.63;20.80;;;;;;;;;;5064299;28;20024;-50
2023/10/30 07:15:54;;;;;;;28.48;20.70;;;;;;;;;;5059049;28;20459;-50
2023/10/30 07:18:22;;;;;;;28.02;20.17;;;;;;;;;;5061382;28;20109;-50
2023/10/30 07:20:48;;;;;;;28.08;19.27;;;;;;;;;;5058193;28;20016;-54
2023/10/30 07:23:14;;;;;;;34.60;20.70;;;;;;;;;;5060949;28;20078;-52
2023/10/30 07:25:40;;;;;;;28.00;20.33;;;;;;;;;;5061991;28;20040;-51
2023/10/30 07:28:06;;;;;;;29.27;19.63;;;;;;;;;;5059241;28;20029;-52
2023/10/30 07:30:32;;;;;;;31.80;20.50;;;;;;;;;;5055384;28;20032;-52
2023/10/30 07:32:58;;;;;;;34.10;22.90;;;;;;;;;;5001609;28;1697449;-50
2023/10/30 07:35:24;;;;;;;31.50;21.17;;;;;;;;;;5065004;28;20025;-50
2023/10/30 07:37:50;;;;;;;30.05;20.85;;;;;;;;;;5066717;28;20040;-54
2023/10/30 07:40:16;;;;;;;32.45;21.85;;;;;;;;;;5065833;28;20077;-51
2023/10/30 07:42:43;;;;;;;39.47;24.13;;;;;;;;;;5053902;28;20381;-51
2023/10/30 07:45:10;;;;;;;35.58;22.52;;;;;;;;;;5062054;28;20421;-51
2023/10/30 07:47:36;;;;;;;32.60;23.05;;;;;;;;;;5061344;28;20081;-51
2023/10/30 07:50:02;;;;;;;31.50;22.60;;;;;;;;;;5061959;28;20056;-56
2023/10/30 07:52:28;;;;;;;36.28;23.60;;;;;;;;;;5048342;28;20029;-63
2023/10/30 07:54:55;;;;;;;32.25;22.05;;;;;;;;;;5061580;28;20112;-72
2023/10/30 07:57:21;;;;;;;38.50;25.08;;;;;;;;;;5066914;28;20448;-70
2023/10/30 07:59:47;;;;;;;38.53;25.73;;;;;;;;;;5071028;28;20020;-68
2023/10/30 08:02:13;;;;;;;33.88;23.90;;;;;;;;;;5055908;28;20111;-72
2023/10/30 08:04:39;;;;;;;32.72;20.80;;;;;;;;;;5053163;28;20036;-59
2023/10/30 08:07:05;;;;;;;29.40;22.02;;;;;;;;;;5074005;28;20020;-60
2023/10/30 08:09:31;;;;;;;28.48;21.13;;;;;;;;;;5066995;28;20052;-59
2023/10/30 08:11:57;;;;;;;35.35;23.15;;;;;;;;;;5062985;28;20024;-56
2023/10/30 08:14:24;;;;;;;33.13;21.58;;;;;;;;;;5072299;28;20028;-64
2023/10/30 08:16:50;;;;;;;33.80;21.48;;;;;;;;;;5069955;28;20470;-57
2023/10/30 08:19:16;;;;;;;29.25;21.42;;;;;;;;;;5073698;28;20481;-71
2023/10/30 08:21:42;;;;;;;29.95;22.10;;;;;;;;;;5056842;28;20023;-68
2023/10/30 08:24:09;;;;;;;34.05;23.90;;;;;;;;;;5055541;28;20143;-68
2023/10/30 08:26:35;;;;;;;41.10;24.20;;;;;;;;;;5055500;28;20059;-65
2023/10/30 08:29:01;;;;;;;29.95;23.25;;;;;;;;;;5061518;28;20037;-67
2023/10/30 08:31:27;;;;;;;34.47;22.10;;;;;;;;;;5069927;28;20780;-64
2023/10/30 08:33:54;;;;;;;34.00;23.17;;;;;;;;;;5052647;28;20043;-64
2023/10/30 08:36:23;;;;;;;28.63;22.63;;;;;;;;;;5060880;28;20478;-64
2023/10/30 08:38:49;;;;;;;31.73;23.95;;;;;;;;;;5068321;28;20432;-65
2023/10/30 08:41:17;;;;;;;34.05;23.95;;;;;;;;;;5069597;28;20124;-66
2023/10/30 08:43:44;;;;;;;34.38;24.10;;;;;;;;;;5067103;28;20051;-63
2023/10/30 08:46:16;;;;;;;33.38;23.90;;;;;;;;;;5054829;28;20024;-64
2023/10/30 08:48:42;;;;;;;33.97;24.13;;;;;;;;;;5053257;28;20054;-68
2023/10/30 08:51:08;;;;;;;37.00;24.92;;;;;;;;;;5066947;28;20032;-64
2023/10/30 08:53:35;;;;;;;39.33;26.38;;;;;;;;;;5063727;28;20047;-67
2023/10/30 08:56:01;;;;;;;35.20;25.13;;;;;;;;;;5065654;28;20028;-65
2023/10/30 08:58:28;;;;;;;36.30;25.42;;;;;;;;;;5057986;28;20570;-64
2023/10/30 09:00:53;;;;;;;34.88;25.95;;;;;;;;;;5052219;28;20029;-67
2023/10/30 09:03:19;;;;;;;38.90;27.58;;;;;;;;;;5059754;28;20025;-67
2023/10/30 09:05:46;;;;;;;36.78;26.60;;;;;;;;;;5067595;28;20033;-64
2023/10/30 09:08:12;;;;;;;35.28;27.42;;;;;;;;;;5062651;28;20025;-63
2023/10/30 09:10:38;;;;;;;38.65;28.83;;;;;;;;;;5065606;28;20147;-63
2023/10/30 09:13:04;;;;;;;36.25;28.92;;;;;;;;;;5052187;28;20204;-66
2023/10/30 09:15:30;;;;;;;42.08;30.48;;;;;;;;;;5068432;28;20032;-69
2023/10/30 09:17:56;;;;;;;37.83;31.40;;;;;;;;;;5070788;28;20492;-60
2023/10/30 09:20:22;;;;;;;46.88;32.92;;;;;;;;;;5068710;28;20146;-61
2023/10/30 09:22:48;;;;;;;43.35;31.85;;;;;;;;;;5067259;28;20025;-63
2023/10/30 09:25:14;;;;;;;39.80;31.85;;;;;;;;;;5066795;28;20028;-69
2023/10/30 09:27:40;;;;;;;41.85;31.02;;;;;;;;;;5069879;28;20058;-61
2023/10/30 09:30:07;;;;;;;41.40;31.35;;;;;;;;;;5064980;28;20138;-61
2023/10/30 09:32:33;;;;;;;43.25;31.88;;;;;;;;;;5068907;28;20101;-71
2023/10/30 09:34:59;;;;;;;42.65;31.00;;;;;;;;;;5064732;28;20017;-68
2023/10/30 09:37:26;;;;;;;42.58;29.90;;;;;;;;;;5053657;28;20427;-69
2023/10/30 09:39:52;;;;;;;41.08;29.92;;;;;;;;;;5068876;28;20031;-70
2023/10/30 09:42:18;;;;;;;47.45;30.67;;;;;;;;;;5067078;28;20029;-59
2023/10/30 09:44:44;;;;;;;48.65;32.47;;;;;;;;;;5067323;28;20490;-60
2023/10/30 09:47:11;;;;;;;47.00;31.95;;;;;;;;;;5070555;28;20017;-59
2023/10/30 09:49:37;;;;;;;53.67;33.00;;;;;;;;;;5073337;28;20048;-59
2023/10/30 09:52:05;;;;;;;42.75;31.55;;;;;;;;;;5069208;28;20416;-59
2023/10/30 09:54:33;;;;;;;47.67;32.28;;;;;;;;;;5069122;28;20032;-68
2023/10/30 09:57:03;;;;;;;46.65;32.65;;;;;;;;;;5069771;28;20115;-61
2023/10/30 09:59:31;;;;;;;47.08;34.55;;;;;;;;;;5061792;28;20023;-69
2023/10/30 10:01:57;;;;;;;54.60;34.13;;;;;;;;;;5065042;28;20028;-68
2023/10/30 10:04:23;;;;;;;54.40;36.10;;;;;;;;;;5069654;28;20512;-71
2023/10/30 10:06:53;;;;;;;56.97;35.50;;;;;;;;;;5070345;28;20095;-70
2023/10/30 10:09:19;;;;;;;57.60;35.17;;;;;;;;;;5070801;28;20036;-72
2023/10/30 10:11:45;;;;;;;52.28;33.50;;;;;;;;;;5063332;28;20028;-68
2023/10/30 10:14:11;;;;;;;47.92;34.58;;;;;;;;;;5072900;28;20029;-69
2023/10/30 10:16:37;;;;;;;49.55;32.70;;;;;;;;;;5072810;28;20032;-74
2023/10/30 10:19:20;;;;;;;47.92;32.35;;;;;;;;;;5060364;28;20021;-70
2023/10/30 10:21:50;;;;;;;44.92;32.00;;;;;;;;;;5061362;28;20110;-72
2023/10/30 10:24:32;;;;;;;39.80;33.45;;;;;;;;;;5058927;28;20036;-70
2023/10/30 10:27:02;;;;;;;45.30;35.25;;;;;;;;;;5065780;28;20082;-65
2023/10/30 10:29:28;;;;;;;43.70;33.38;;;;;;;;;;5060165;28;20025;-59
2023/10/30 10:31:54;;;;;;;42.60;34.20;;;;;;;;;;5069576;28;20151;-61
2023/10/30 10:34:20;;;;;;;51.58;35.53;;;;;;;;;;5068240;28;20032;-61
2023/10/30 10:36:46;;;;;;;51.83;35.35;;;;;;;;;;5072075;28;20043;-50
2023/10/30 10:39:12;;;;;;;50.22;36.30;;;;;;;;;;5072042;28;20070;-52
2023/10/30 10:41:39;;;;;;;48.70;38.67;;;;;;;;;;5071560;28;20032;-52
2023/10/30 10:44:07;;;;;;;43.22;34.67;;;;;;;;;;5071878;28;20078;-53
2023/10/30 10:46:33;;;;;;;47.03;35.58;;;;;;;;;;5062436;28;20398;-67
2023/10/30 10:48:59;;;;;;;53.83;38.42;;;;;;;;;;5067597;28;20467;-70
2023/10/30 10:51:30;;;;;;;52.60;38.03;;;;;;;;;;5060827;28;20454;-64
2023/10/30 10:53:59;;;;;;;49.17;36.80;;;;;;;;;;5062969;28;20127;-63
2023/10/30 10:56:26;;;;;;;51.17;37.58;;;;;;;;;;5056052;28;20033;-65
2023/10/30 10:59:00;;;;;;;52.88;37.28;;;;;;;;;;5039840;28;20075;-64
2023/10/30 11:01:29;;;;;;;43.13;35.28;;;;;;;;;;5067039;28;20149;-63
2023/10/30 11:03:56;;;;;;;40.90;34.97;;;;;;;;;;5068259;28;20036;-66
2023/10/30 11:06:23;;;;;;;45.42;36.55;;;;;;;;;;5067084;28;20094;-65
2023/10/30 11:08:55;;;;;;;43.75;35.42;;;;;;;;;;5067101;28;20433;-57
2023/10/30 11:11:29;;;;;;;45.63;34.28;;;;;;;;;;5060800;28;20086;-59
2023/10/30 11:14:25;;;;;;;47.80;38.17;;;31.90;1.00;;;;;;5068143;28;20520;-59
2023/10/30 11:17:00;;;;;;;45.08;35.88;;;31.80;1.00;;;;;;5061585;28;20029;-59
2023/10/30 11:19:28;;;;;;;50.08;36.58;;;31.90;1.00;;;;;;5068813;28;20447;-65
2023/10/30 11:21:54;;;;;;;51.90;38.60;;;31.90;1.00;;;;;;5069429;28;20420;-70
2023/10/30 11:24:39;;;;;;;45.05;36.63;;;31.80;1.00;;;;;;5066194;28;20054;-62
2023/10/30 11:27:27;;;;;;;47.47;35.70;;;31.90;1.00;;;;;;5061353;28;20359;-64
2023/10/30 11:29:54;;;;;;;52.97;37.30;;;31.90;1.00;;;;;;5072935;28;20025;-64
2023/10/30 11:32:20;;;;;;;49.90;38.03;;;31.90;1.00;;;;;;5075418;28;20059;-64
2023/10/30 11:34:46;;;;;;;49.60;37.53;;;32.00;1.00;;;;;;5072027;28;20033;-64
2023/10/30 11:37:15;;;;;;;47.58;36.78;;;32.00;1.00;;;;;;5068808;28;20419;-64
2023/10/30 11:39:45;;;;;;;46.78;36.92;;;32.00;1.00;;;;;;5074375;28;20427;-64
2023/10/30 11:42:34;;;;;;;47.25;36.67;;;32.00;1.00;;;;;;5057629;28;20434;-64
2023/10/30 11:45:18;;;;;;;48.05;36.50;;;31.90;1.00;;;;;;5057425;28;20028;-64
2023/10/30 11:48:05;;;;;;;50.28;37.50;;;31.90;1.00;;;;;;5075152;28;20056;-64
2023/10/30 11:50:35;;;;;;;54.47;39.83;;;31.80;1.00;;;;;;5074916;28;20016;-64
2023/10/30 11:53:12;;;;;;;51.20;39.92;;;31.80;1.00;;;;;;5073587;28;20147;-64
2023/10/30 11:55:41;;;;;;;59.35;40.95;;;31.80;1.00;;;;;;5061288;28;20036;-64
2023/10/30 11:58:11;;;;;;;55.08;39.83;;;31.70;1.00;;;;;;5075282;28;20316;-64
2023/10/30 12:00:44;;;;;;;52.55;39.53;;;31.70;1.00;;;;;;5068981;28;20037;-64
2023/10/30 12:03:10;;;;;;;51.22;40.20;;;31.70;1.00;;;;;;5067145;28;20420;-64
2023/10/30 12:05:36;;;;;;;56.42;39.35;;;31.70;1.00;;;;;;5051864;28;20052;-64
2023/10/30 12:08:03;;;;;;;56.40;42.05;;;31.80;1.00;;;;;;5075183;28;20025;-64
2023/10/30 12:10:29;;;;;;;55.00;39.50;;;31.70;1.00;;;;;;5066939;28;20020;-64
2023/10/30 12:12:55;;;;;;;62.47;42.30;;;31.80;1.00;;;;;;5073259;28;20100;-64
2023/10/30 12:15:20;;;;;;;53.15;37.78;;;31.90;1.00;;;;;;5071851;28;20538;-64
2023/10/30 12:17:46;;;;;;;53.65;39.38;;;31.80;1.00;;;;;;5072256;28;20104;-64
2023/10/30 12:20:12;;;;;;;51.83;39.58;;;31.90;1.00;;;;;;5074829;28;20058;-64
2023/10/30 12:22:41;;;;;;;58.42;40.22;;;31.90;1.00;;;;;;5074866;28;20021;-64
2023/10/30 12:25:08;;;;;;;55.38;41.67;;;32.00;1.00;;;;;;5074902;28;20054;-64
2023/10/30 12:27:34;;;;;;;53.92;40.15;;;32.00;1.00;;;;;;5074787;28;20128;-64
2023/10/30 12:30:13;;;;;;;55.70;39.88;;;32.00;1.00;;;;;;5074729;28;20055;-64
2023/10/30 12:32:39;;;;;;;53.35;36.67;;;32.00;1.00;;;;;;5069413;28;20082;-64
2023/10/30 12:35:08;;;;;;;52.10;37.67;;;32.00;1.00;;;;;;5065218;28;20036;-64
2023/10/30 12:37:37;;;;;;;51.97;34.58;;;;;;;;;;5074703;28;20013;-64
2023/10/30 12:40:04;;;;;;;49.75;35.38;;;;;;;;;;5073880;28;20024;-64
2023/10/30 12:42:30;;;;;;;46.63;35.25;;;;;;;;;;5065224;28;20021;-64
2023/10/30 12:44:56;;;;;;;51.17;35.38;;;;;;;;;;5052758;28;20040;-64
2023/10/30 12:47:22;;;;;;;49.00;35.80;;;;;;;;;;5060109;28;20017;-64
2023/10/30 12:49:48;;;;;;;47.63;34.47;;;;;;;;;;5074249;28;20032;-64
2023/10/30 12:52:14;;;;;;;40.22;32.20;;;;;;;;;;5073157;28;20013;-64
2023/10/30 12:54:41;;;;;;;47.30;33.38;;;;;;;;;;5059020;28;20029;-64
2023/10/30 12:57:07;;;;;;;45.45;33.33;;;;;;;;;;5073742;28;20013;-64
2023/10/30 12:59:33;;;;;;;42.72;33.00;;;;;;;;;;5072876;28;20446;-64
2023/10/30 13:01:59;;;;;;;44.88;33.03;;;;;;;;;;5070315;28;20021;-64
2023/10/30 13:04:26;;;;;;;50.58;34.95;;;;;;;;;;5069626;28;20046;-64
2023/10/30 13:06:53;;;;;;;47.53;33.50;;;;;;;;;;5066676;28;20467;-64
2023/10/30 13:09:19;;;;;;;44.58;32.60;;;;;;;;;;5054372;28;20016;-64
2023/10/30 13:11:45;;;;;;;48.65;33.35;;;;;;;;;;5063129;28;20377;-64
2023/10/30 13:14:11;;;;;;;54.50;34.97;;;;;;;;;;5073928;28;20017;-64
2023/10/30 13:16:37;;;;;;;47.63;33.72;;;;;;;;;;5072708;28;20078;-64
2023/10/30 13:19:03;;;;;;;45.97;32.45;;;;;;;;;;5073899;28;20024;-64
2023/10/30 13:21:29;;;;;;;36.47;26.20;;;;;;;;;;5054492;28;20039;-64
2023/10/30 13:23:55;;;;;;;35.00;26.38;;;;;;;;;;5069206;28;20473;-64
2023/10/30 13:26:21;;;;;;;39.85;25.83;;;;;;;;;;5073617;28;20039;-64
2023/10/30 13:28:47;;;;;;;37.72;27.60;;;;;;;;;;5071261;28;20033;-64
2023/10/30 13:31:13;;;;;;;36.25;27.25;;;;;;;;;;5067776;28;20127;-72
2023/10/30 13:33:39;;;;;;;50.20;32.95;;;;;;;;;;5069189;28;20123;-65
2023/10/30 13:36:05;;;;;;;50.20;32.65;;;;;;;;;;5063191;28;20081;-65
2023/10/30 13:38:31;;;;;;;52.00;33.60;;;;;;;;;;5048635;28;20044;-73
2023/10/30 13:40:59;;;;;;;54.88;35.38;;;;;;;;;;5060462;28;20108;-70
2023/10/30 13:43:26;;;;;;;60.45;34.70;;;;;;;;;;5069149;28;20027;-73
2023/10/30 13:45:52;;;;;;;55.85;35.17;;;;;;;;;;5060332;28;20036;-71
2023/10/30 13:48:18;;;;;;;62.20;37.35;;;;;;;;;;5072519;28;20059;-71
2023/10/30 13:50:44;;;;;;;58.22;37.08;;;;;;;;;;5068545;28;20478;-68
2023/10/30 13:53:10;;;;;;;51.65;35.03;;;;;;;;;;5071096;28;20027;-66
2023/10/30 13:55:36;;;;;;;56.90;37.60;;;;;;;;;;5065955;28;20532;-64
2023/10/30 13:58:02;;;;;;;45.90;31.88;;;;;;;;;;5071512;28;20075;-65
2023/10/30 14:00:30;;;;;;;67.47;38.97;;;;;;;;;;5069372;28;20909;-62
2023/10/30 14:02:56;;;;;;;49.88;32.35;;;;;;;;;;5067691;28;20347;-69
2023/10/30 14:05:22;;;;;;;55.85;32.60;;;;;;;;;;5066938;28;20033;-67